This is the latest recevied weather packets stored in our database for station/object NC4M. If no packets are shown the sender has not sent any weather packets the latest 10 day(s).
| Time | Temp. | Humidity | Pressure | Rain* | Wind** | Luminosity | Snow |
|---|---|---|---|---|---|---|---|
| 1787935524 | 27.22° C | 51% | 1022.5 hPa | 0 mm | - | 821 W/m² | - |
| 1787935220 | 27.78° C | 49% | 1022.6 hPa | 0 mm | - | 812 W/m² | - |
| 1787934915 | 28.33° C | 46% | 1022.7 hPa | 0 mm | - | 803 W/m² | - |
| 1787934610 | 27.78° C | 51% | 1022.8 hPa | 0 mm | - | 793 W/m² | - |
| 1787934309 | 27.22° C | 50% | 1022.7 hPa | 0 mm | - | 788 W/m² | - |
| 1787934009 | 27.22° C | 49% | 1023 hPa | 0 mm | - | 776 W/m² | - |
| 1787933709 | 27.22° C | 50% | 1023.1 hPa | 0 mm | - | 764 W/m² | - |
| 1787933403 | 26.67° C | 54% | 1022.8 hPa | 0 mm | - | 750 W/m² | - |
| 1787933103 | 26.67° C | 51% | 1022.9 hPa | 0 mm | - | 739 W/m² | - |
| 1787932802 | 26.11° C | 55% | 1022.9 hPa | 0 mm | - | 727 W/m² | - |
| 1787932497 | 26.11° C | 56% | 1023 hPa | 0 mm | - | 134 W/m² | - |
| 1787932192 | 25.56° C | 55% | 1023 hPa | 0 mm | - | 254 W/m² | - |
| 1787931890 | 25.56° C | 57% | 1022.8 hPa | 0 mm | - | 98 W/m² | - |
| 1787931585 | 25.56° C | 54% | 1022.9 hPa | 0 mm | - | 211 W/m² | - |
| 1787931280 | 25.56° C | 51% | 1022.7 hPa | 0 mm | - | 55 W/m² | - |
| 1787930979 | 25.56° C | 57% | 1022.8 hPa | 0 mm | - | 53 W/m² | - |
| 1787930679 | 25° C | 60% | 1022.7 hPa | 0 mm | - | 48 W/m² | - |
| 1787930374 | 25° C | 57% | 1022.6 hPa | 0 mm | - | 60 W/m² | - |
| 1787930069 | 25° C | 60% | 1022.6 hPa | 0 mm | - | 47 W/m² | - |
| 1787929767 | 25° C | 62% | 1022.3 hPa | 0 mm | - | 49 W/m² | - |
| 1787929463 | 25° C | 61% | 1022.4 hPa | 0 mm | - | 46 W/m² | - |
| 1787929160 | 24.44° C | 65% | 1022.5 hPa | 0 mm | - | 52 W/m² | - |
| 1787928855 | 24.44° C | 65% | 1022.4 hPa | 0 mm | - | 44 W/m² | - |
| 1787928555 | 24.44° C | 65% | 1022.4 hPa | 0 mm | - | 43 W/m² | - |
| 1787928254 | 23.89° C | 71% | 1022.2 hPa | 0 mm | - | 172 W/m² | - |
* Rain latest hour (hover to see other rain measurements)
** Current wind speed in m/s (hover to see current wind gust speed)